Georgia, Vermont
Current Conditions -  °F | °C
As of 8:54 AM on Saturday 20 Dec 2014 (Local Time) from KBTV Reporting Station
Few Clouds Few Clouds  
Wind Chill:   Ceiling: Unl
Heat Index: 14°   Visibility: 10mi
Dew Point:   Wind: 5mph
Humidity: 77%   Direction: 70°ENE
Pressure: 30.34"   Gusts: NA
Location:  44.6579°N, 73.1453°W
Report Text: KBTV 201354Z 07004KT 10SM FEW080 FEW120 M10/M13 A3034 RMK AO2 SLP280 VCFG T11001133
Loading
Personal Weather Stations






























Interactive Weather Map New forecast layout! Learn more

10-Day Weather Forecast

Advertisements
Track Severe Weather on mobile